Ride Results

Faraway Easter Carnival (18-04-2014)
Ride distance: 80.0 km

Outcomes - Faraway Easter Carnival (18-04-2014)
Division No. of Entries Retired / DNE Completed Withdrawn Ineligible V/O Percentage Completed
HW 10 - 9 - - 1 90.00%
MW 28 - 23 - - 5 82.14%
LW 19 - 16 - 1 2 84.21%
JN 8 - 8 - - - 100.00%
Totals 65 - 56 - 1 8 86.15%
Results - Faraway Easter Carnival (18-04-2014)
No. Rider Horse Place Time Leg Speeds Total
Km/Hr
H/R bpm
Heavyweight
166 Rod Strahan Suncrest Sadaqa's Pride 1 (BC) 4:52:00 17.9, 15.1 16.44 32, 40, 54 (Avg:47)
104 Chris Nichols Bashan Memphis 2 5:06:00 17.7, 14.0 15.69 29, 45, 53 (Avg:49)
121 Gregg Fields Dunwingeri Jasim 3 7:21:00 11.7, 10.1 10.88 39, 47, 53 (Avg:50)
125 Sean Field Natham Park Nizai 4 7:40:00 11.9, 9.2 10.43 41, 44, 48 (Avg:46)
158 Jay Dodds Marja My Girl 5 7:55:00 11.8, 8.7 10.11 32, 35, 52 (Avg:43)
133 Gary Surch Lenannlaw Will Travel 6 8:27:00 12.3, 7.6 9.47 39, 54, 49 (Avg:51)
156 Tami Parnell Churinga Firestorm 7 8:29:00 11.6, 7.9 9.43 41, 44, 54 (Avg:49)
111 Doc Eckley Brookleigh Marlon 8 8:36:00 10.8, 8.1 9.30 37, 42, 44 (Avg:43)
110 Rod Field Brookleigh Louise 8 8:36:00 10.8, 8.1 9.30 37, 44, 45 (Avg:44)
122 Paul Roosen Greywood Magenta Lame L2 0:00:00 13.5, 9.8 - 32, 40, 47 (Avg:43)
Middleweight
135 Ute Jordan Charaway Amici 1 4:48:00 19.8, 14.3 16.67 37, 48, 45 (Avg:46)
101 Jamie Green Chelleason Rembrandt 2 (BC) 4:48:30 17.9, 15.5 16.64 32, 48, 47 (Avg:47)
161 Akhmed Pshunov Abbeywood Roxanne 3 4:50:00 16.7, 16.3 16.55 37, 47, 59 (Avg:53)
152 Billie Barron Virgil 4 4:53:00 17.9, 15.0 16.38 41, 37, 52 (Avg:44)
155 Simone Krahnen Kalkadoon Zorro 5 5:29:00 16.5, 13.0 14.59 38, 46, 48 (Avg:47)
162 Narelle Childs Halo Kazaam 6 5:35:00 16.7, 12.4 14.33 38, 46, 55 (Avg:50)
128 Lisa Loranger Drizzle 6 5:35:00 16.6, 12.5 14.33 42, 48, 50 (Avg:49)
142 Adrian Brickley Lion Hunter 8 6:40:00 13.7, 10.6 12.00 31, 41, 52 (Avg:46)
165 Rilene Heydenreich Aphrodite Malakia 9 6:50:00 15.7, 9.3 11.71 37, 46, 44 (Avg:45)
116 Caroline Fitzgerald Lanamere Dolce 10 6:53:00 11.5, 11.7 11.62 36, 48, 45 (Avg:46)
123 Troy Roosen Camilla's English Rose 11 7:01:00 13.5, 9.8 11.40 34, 47, 55 (Avg:51)
120 Stephen Gray Longrun Mikami 12 7:10:00 11.8, 10.5 11.16 39, 47, 50 (Avg:48)
145 Emeline Lacour Kelkette Park Defy 12 7:10:00 11.9, 10.4 11.16 35, 42, 48 (Avg:45)
143 Sonja Timani Brookleigh Rex 12 7:10:00 11.9, 10.4 11.16 34, 43, 51 (Avg:47)
146 Brook Sample Kelkette Park Delatite 15 7:11:00 11.9, 10.4 11.14 34, 43, 52 (Avg:47)
157 Sasha Laws-King Heathfield's Flashrani 16 7:16:00 11.9, 10.2 11.01 36, 39, 46 (Avg:42)
108 Shigeru Ogawa Bashan Silver Nadeer 17 8:04:00 11.6, 8.6 9.92 29, 37, 41 (Avg:39)
118 Ruth White Cameo Puccini 18 8:20:00 11.5, 8.1 9.60 41, 46, 51 (Avg:48)
138 Lauren Trenkner Woodbourne Chance 19 8:34:00 10.9, 8.1 9.34 39, 45, 50 (Avg:47)
130 Patricia Coonan Chippington 20 8:57:00 11.6, 7.2 8.94 38, 45, 59 (Avg:52)
147 Christine Maroni Mt Tawonga Tranquil 21 9:01:00 11.4, 7.2 8.87 34, 49, 55 (Avg:52)
148 Cathie Bruce Maske 22 9:10:00 10.3, 7.5 8.73 33, 43, 50 (Avg:46)
149 Sarah Curtis Lanamere Indianna 22 9:10:00 10.3, 7.5 8.73 39, 44, 60 (Avg:52)
131 Natashja Burton Lindall Kalliope Lame L2 0:00:00 18.1, 15.4 - 32, 48, 56 (Avg:52)
141 Casey Risson Millcreek Madrigal Heart Rate L2 0:00:00 17.9, 10.8 - 34, 53, 68 (Avg:60)
115 Judith Burton Woodbourne Larry Lame L1 0:00:00 10.9 - 36, 41 (Avg:41)
114 Jacinta Stubbings Ffire Storm Lame L1 0:00:00 17.9 - 39, 48 (Avg:48)
106 Debbie Edwards Bashan Phoenix Lame P/R 0:00:00 - - 33, 46 (Avg:46)
Lightweight
150 Janelle Taylor Glenewan Scout 1 (BC) 4:48:00 19.8, 14.3 16.67 35, 44, 50 (Avg:47)
137 Meleita Dart Cameo Rhodezia 2 4:52:00 18.3, 14.9 16.44 35, 43, 53 (Avg:48)
154 Erin Krahnen Glengannon Azazael 3 5:29:00 16.5, 13.0 14.59 43, 47, 60 (Avg:53)
102 Kelsey Irvine Brookleigh Donoma 4 6:52:00 12.1, 11.2 11.65 33, 41, 44 (Avg:42)
134 Monique Flower Annabar Ro'Hahn 5 6:57:00 13.8, 9.8 11.51 38, 47, 58 (Avg:52)
119 Bianca Porter La Di Da 6 7:04:00 11.7, 10.9 11.32 34, 42, 57 (Avg:49)
159 Jeanna Maher Briallyn Habib 7 7:08:00 11.9, 10.5 11.21 47, 54, 55 (Avg:54)
144 Deleni Walters Gheerulla Ambition 8 7:11:00 11.9, 10.4 11.14 33, 40, 43 (Avg:41)
103 Karen Fields Lasca's Legacy 9 7:21:00 11.7, 10.1 10.88 34, 43, 46 (Avg:44)
124 Fiona Fenech Willowstar Eclipse 10 7:40:00 12.2, 9.0 10.43 38, 47, 52 (Avg:49)
112 Antonia Jardine Performance Park Maverick 11 8:20:00 11.7, 8.1 9.60 36, 35, 38 (Avg:36)
132 Michelle Carpenter Conley 12 8:27:00 11.7, 7.9 9.47 39, 42, 45 (Avg:43)
140 Claudia Gillies Kholonial Bronzewings 13 8:49:00 11.0, 7.7 9.07 34, 40, 42 (Avg:41)
139 Carla Jones Kholonial Bartholomew 13 8:49:00 11.0, 7.7 9.07 38, 40, 47 (Avg:43)
129 Lorraine Ternouth Drumlin Mystic Moon 15 8:57:00 11.6, 7.2 8.94 30, 42, 46 (Avg:44)
126 Carol Kite Holly Hill's Billy Boy 16 8:59:00 11.5, 7.2 8.91 36, 45, 54 (Avg:49)
127 Sue Jones Cairo's Promise Lame L2 0:00:00 12.3, 11.0 - 35, 55, 51 (Avg:53)
109 Sachiko Murai Awarran Park Silver Countess Lame L2 0:00:00 11.6, 8.6 - 44, 48, 46 (Avg:47)
167 Kate Appleby Shuja Belthesar Not started P/R 0:00:00 - - 32
Junior
153 Colleen Krahnen Kalkadoon Viva 1 (BC) 5:29:00 16.5, 13.0 14.59 40, 40, 44 (Avg:42)
105 Christina Simpson Agape Evezra 2 5:46:00 17.9, 11.2 13.87 39, 45, 52 (Avg:48)
117 Timothy Fitzgerald Beaudacious te 3 6:53:00 11.9, 11.2 11.62 32, 40, 50 (Avg:45)
160 Ronan McKay Kelkette Park Silver Edge 4 7:08:00 11.9, 10.5 11.21 37, 39, 45 (Avg:42)
151 Matty Sample Gheerulla ET 5 7:11:00 11.9, 10.4 11.14 34, 46, 47 (Avg:46)
163 Emily Markey Annordean Balin 6 7:40:00 10.9, 9.9 10.43 40, 42, 48 (Avg:45)
164 Bridget McHugh Dardanga Fingal 6 7:40:00 10.9, 9.9 10.43 38, 44, 46 (Avg:45)
113 Emma Dimech Follydown Gai Emerald 8 7:59:00 11.0, 9.1 10.02 36, 43, 48 (Avg:45)